»·PEaware :: N5402G KBUR-KSJC

N5402G :: KBUR-KSJC

FLIGHT INFORMATION

Flight Status: Arrived
Operator: Privately registered:
United States
More flights under this callsign
Pilot: Ben H. (9170)
Aircraft: PIPER PA-31/31P NAVAJO CHIEFTAIN
(PA31)
More flights by this aircraft type
Origin: KBUR Bob Hope-Burbank
United States
Destination: KSJC Mineta San Jose Intl
United States
More flights between these airports :: More routes between these airports
Route: VNY3 GMN AVE ROBIE5
File this flight plan on PilotEdge
Remarks:
Altitude:
(Current/Filed)
10,000ft
Speed:
(Current/Filed)
170kts
Departed: 23-Jan-21 07:22 PM
Arrived: 23-Jan-21 09:02 PM
Distance/Time
Traveled:
257nm/1:40
Distance/Time
To Go:
Arrived

Flight Plot

Page will automatically refresh every two minutes.

Flight plan parsing failed; only flown route is shown


Map Options




Map Legend


Flown Route
Filed Route
Departure Airport
Arrival Airport
Navaid (VOR, NDB)
Fix

Horizontal Profiles

Position Reports

Time Latitude Longitude Heading Altitude Ground
Speed
23-Jan-21 19:09 34.199625 -118.360160 87 780ft 0kts
23-Jan-21 19:11 34.199625 -118.360160 87 780ft 0kts
23-Jan-21 19:11 34.199625 -118.360161 87 780ft 0kts
23-Jan-21 19:12 34.199625 -118.360161 87 780ft 0kts
23-Jan-21 19:13 34.199625 -118.360160 87 780ft 0kts
23-Jan-21 19:14 34.199625 -118.360160 87 780ft 0kts
23-Jan-21 19:15 34.199625 -118.360160 87 780ft 0kts
23-Jan-21 19:16 34.199625 -118.360160 87 780ft 0kts
23-Jan-21 19:17 34.199079 -118.365259 271 780ft 20kts
23-Jan-21 19:18 34.198709 -118.368979 182 780ft 0kts
23-Jan-21 19:19 34.198710 -118.368979 182 780ft 0kts
23-Jan-21 19:20 34.197938 -118.368296 99 780ft 18kts
23-Jan-21 19:21 34.190496 -118.340243 166 1821ft 104kts
23-Jan-21 19:22 34.167483 -118.358699 224 3224ft 106kts
23-Jan-21 19:23 34.145364 -118.385249 246 4424ft 119kts
23-Jan-21 19:24 34.167395 -118.405814 349 5633ft 119kts
23-Jan-21 19:25 34.199298 -118.414170 328 6827ft 118kts
23-Jan-21 19:26 34.224730 -118.438478 323 7941ft 115kts
23-Jan-21 19:27 34.252279 -118.464571 323 9020ft 144kts
23-Jan-21 19:28 34.285456 -118.495348 324 10000ft 168kts
23-Jan-21 19:29 34.324448 -118.531705 323 9983ft 180kts
23-Jan-21 19:30 34.364436 -118.569072 323 9980ft 182kts
23-Jan-21 19:31 34.404495 -118.606514 323 9981ft 182kts
23-Jan-21 19:32 34.444559 -118.644005 323 10008ft 180kts
23-Jan-21 19:33 34.484361 -118.681293 323 10008ft 181kts
23-Jan-21 19:34 34.524437 -118.718887 323 10010ft 181kts
23-Jan-21 19:35 34.569581 -118.744619 337 10010ft 180kts
23-Jan-21 19:36 34.616072 -118.767959 338 10001ft 180kts
23-Jan-21 19:37 34.662543 -118.791040 338 9993ft 180kts
23-Jan-21 19:38 34.709064 -118.814164 338 9988ft 180kts
23-Jan-21 19:39 34.755324 -118.837188 338 9989ft 179kts
23-Jan-21 19:40 34.801200 -118.860444 331 9994ft 178kts
23-Jan-21 19:41 34.836226 -118.903178 314 10005ft 178kts
23-Jan-21 19:42 34.866254 -118.942719 314 9967ft 178kts
23-Jan-21 19:43 34.899834 -118.986749 315 9983ft 176kts
23-Jan-21 19:44 34.933040 -119.030232 315 9994ft 175kts
23-Jan-21 19:45 34.966399 -119.073964 315 9997ft 176kts
23-Jan-21 19:46 34.999900 -119.117941 315 9997ft 177kts
23-Jan-21 19:47 35.033408 -119.161989 315 9997ft 178kts
23-Jan-21 19:48 35.067303 -119.206605 315 9997ft 178kts
23-Jan-21 19:49 35.100993 -119.251010 315 9997ft 178kts
23-Jan-21 19:50 35.134803 -119.295625 315 9999ft 179kts
23-Jan-21 19:51 35.168630 -119.340325 315 9999ft 179kts
23-Jan-21 19:52 35.202346 -119.384938 315 9999ft 179kts
23-Jan-21 19:53 35.236295 -119.429919 315 9999ft 179kts
23-Jan-21 19:54 35.270102 -119.474769 315 9999ft 179kts
23-Jan-21 19:55 35.303855 -119.519607 315 9999ft 179kts
23-Jan-21 19:56 35.337634 -119.564528 315 10000ft 179kts
23-Jan-21 19:57 35.371391 -119.609492 315 10002ft 179kts
23-Jan-21 19:58 35.404997 -119.654315 315 10004ft 179kts
23-Jan-21 19:59 35.438786 -119.699443 315 10006ft 179kts
23-Jan-21 20:00 35.472533 -119.744574 315 10007ft 179kts
23-Jan-21 20:01 35.506129 -119.789563 315 10005ft 179kts
23-Jan-21 20:02 35.539903 -119.834852 315 9999ft 179kts
23-Jan-21 20:03 35.573561 -119.880045 315 9994ft 179kts
23-Jan-21 20:04 35.607139 -119.925193 315 9989ft 179kts
23-Jan-21 20:05 35.640752 -119.970449 315 9984ft 179kts
23-Jan-21 20:06 35.662748 -120.026205 295 9979ft 182kts
23-Jan-21 20:07 35.681828 -120.084539 295 9979ft 182kts
23-Jan-21 20:08 35.700828 -120.142398 295 9981ft 182kts
23-Jan-21 20:09 35.719855 -120.200401 295 9981ft 182kts
23-Jan-21 20:10 35.738886 -120.258531 295 9979ft 182kts
23-Jan-21 20:11 35.757774 -120.316338 295 9979ft 182kts
23-Jan-21 20:12 35.776851 -120.374837 295 9979ft 182kts
23-Jan-21 20:13 35.795800 -120.433058 295 9979ft 182kts
23-Jan-21 20:14 35.814668 -120.491146 295 9979ft 182kts
23-Jan-21 20:15 35.833383 -120.548875 295 9979ft 182kts
23-Jan-21 20:16 35.852401 -120.607652 295 9979ft 182kts
23-Jan-21 20:17 35.871176 -120.665794 294 9979ft 182kts
23-Jan-21 20:18 35.889936 -120.723998 294 9992ft 181kts
23-Jan-21 20:19 35.908626 -120.782108 294 10006ft 182kts
23-Jan-21 20:20 35.927329 -120.840366 294 10006ft 182kts
23-Jan-21 20:21 35.945913 -120.898378 294 10006ft 182kts
23-Jan-21 20:22 35.964501 -120.956515 294 10006ft 182kts
23-Jan-21 20:23 35.985326 -121.012492 322 10006ft 176kts
23-Jan-21 20:24 36.025147 -121.047355 328 10007ft 174kts
23-Jan-21 20:25 36.064873 -121.081477 328 10012ft 173kts
23-Jan-21 20:26 36.104313 -121.115518 328 10022ft 172kts
23-Jan-21 20:27 36.143353 -121.149266 328 10033ft 171kts
23-Jan-21 20:28 36.182268 -121.182952 328 10042ft 169kts
23-Jan-21 20:29 36.220551 -121.216129 328 10045ft 168kts
23-Jan-21 20:30 36.258513 -121.249068 328 10045ft 168kts
23-Jan-21 20:31 36.296927 -121.282441 328 10045ft 168kts
23-Jan-21 20:32 36.335141 -121.315681 328 10045ft 168kts
23-Jan-21 20:33 36.373674 -121.349240 328 10018ft 168kts
23-Jan-21 20:34 36.411995 -121.382657 328 10018ft 168kts
23-Jan-21 20:36 36.450181 -121.415709 333 10017ft 167kts
23-Jan-21 20:37 36.493550 -121.434267 344 10018ft 165kts
23-Jan-21 20:38 36.537765 -121.451773 343 10018ft 165kts
23-Jan-21 20:39 36.581351 -121.469724 343 10017ft 165kts
23-Jan-21 20:40 36.625094 -121.487860 343 10017ft 165kts
23-Jan-21 20:41 36.668912 -121.506050 343 10017ft 166kts
23-Jan-21 20:42 36.712602 -121.524208 343 10017ft 166kts
23-Jan-21 20:43 36.754519 -121.541577 343 9632ft 154kts
23-Jan-21 20:44 36.794956 -121.558568 343 9078ft 152kts
23-Jan-21 20:45 36.835076 -121.575322 343 8530ft 152kts
23-Jan-21 20:46 36.875560 -121.592216 343 7931ft 156kts
23-Jan-21 20:47 36.917094 -121.609575 343 7271ft 158kts
23-Jan-21 20:48 36.958989 -121.627037 342 6627ft 159kts
23-Jan-21 20:48 36.994137 -121.641750 342 6100ft 160kts
23-Jan-21 20:50 37.043318 -121.662338 341 5378ft 160kts
23-Jan-21 20:51 37.085546 -121.680075 341 4773ft 161kts
23-Jan-21 20:52 37.128403 -121.698093 341 4181ft 161kts
23-Jan-21 20:53 37.168827 -121.718246 320 4038ft 153kts
23-Jan-21 20:53 37.195145 -121.747617 321 4034ft 145kts
23-Jan-21 20:55 37.226396 -121.781129 321 3457ft 110kts
23-Jan-21 20:56 37.249119 -121.805811 321 2888ft 106kts
23-Jan-21 20:56 37.267744 -121.826109 321 2407ft 107kts
23-Jan-21 20:57 37.290440 -121.850879 321 1812ft 108kts
23-Jan-21 20:58 37.313205 -121.875750 320 1218ft 108kts
23-Jan-21 20:59 37.333129 -121.897510 321 685ft 89kts
23-Jan-21 21:00 37.351653 -121.917885 319 271ft 88kts
23-Jan-21 21:01 37.362155 -121.930762 225 50ft 2kts
23-Jan-21 21:02 37.362053 -121.930896 226 50ft 8kts
23-Jan-21 21:03 37.358916 -121.931886 211 55ft 11kts
23-Jan-21 21:04 37.358931 -121.931532 51 55ft 0kts
23-Jan-21 21:05 37.358931 -121.931532 51 55ft 0kts
23-Jan-21 21:06 37.358931 -121.931532 51 55ft 0kts

Navigation Log

Ident Type
Flight plan parsing failed, navigation log unavailable